Time;durP1;ratioP1;P1;durP2;ratioP2;P2;SDS_P1;SDS_P2;PMS_P1;PMS_P2;Temp;Humidity;BMP_temperature;BMP_pressure;BME280_temperature;BME280_humidity;BME280_pressure;Samples;Min_cycle;Max_cycle;Signal;HPM_P1;HPM_P2
2022/07/27 00:01:33;;;;;;;2.97;1.27;;;;;;;20.35;53.47;98048.75;5056807;28;20280;-71
2022/07/27 00:03:59;;;;;;;2.03;1.40;;;;;;;20.37;53.75;98046.56;5056465;28;20573;-71
2022/07/27 00:06:26;;;;;;;5.03;1.50;;;;;;;20.33;53.52;98048.19;5056702;28;20206;-71
2022/07/27 00:08:53;;;;;;;2.43;1.70;;;;;;;20.40;53.73;98051.41;5056607;28;20304;-71
2022/07/27 00:11:19;;;;;;;3.63;1.60;;;;;;;20.42;53.79;98035.72;5056590;28;20209;-71
2022/07/27 00:13:46;;;;;;;4.17;1.63;;;;;;;20.45;53.63;98033.28;5056283;28;20305;-71
2022/07/27 00:16:13;;;;;;;3.40;1.70;;;;;;;20.24;54.12;98039.91;5056511;28;20201;-71
2022/07/27 00:18:39;;;;;;;2.27;1.40;;;;;;;20.33;54.54;98040.09;5056333;28;20263;-71
2022/07/27 00:21:06;;;;;;;4.53;1.80;;;;;;;20.34;54.17;98042.53;5056127;28;20202;-71
2022/07/27 00:23:32;;;;;;;3.90;1.60;;;;;;;20.34;54.17;98041.75;5056364;28;20275;-71
2022/07/27 00:25:59;;;;;;;3.10;2.17;;;;;;;20.34;54.22;98041.75;5055990;28;20674;-71
2022/07/27 00:28:25;;;;;;;2.10;1.70;;;;;;;20.30;54.70;98048.78;5056246;28;20288;-71
2022/07/27 00:30:52;;;;;;;3.47;1.80;;;;;;;20.32;54.30;98049.28;5055920;28;20211;-71
2022/07/27 00:33:18;;;;;;;4.57;1.57;;;;;;;20.31;54.76;98042.28;5056213;28;20205;-71
2022/07/27 00:35:45;;;;;;;1.93;1.70;;;;;;;20.22;54.74;98035.88;5056890;28;20209;-71
2022/07/27 00:38:11;;;;;;;2.30;1.60;;;;;;;20.28;54.89;98040.16;5055964;28;20591;-71
2022/07/27 00:40:38;;;;;;;3.67;1.83;;;;;;;20.29;54.59;98044.44;5055716;28;20669;-71
2022/07/27 00:43:04;;;;;;;2.57;1.90;;;;;;;20.36;54.79;98037.66;5056045;28;20209;-71
2022/07/27 00:45:31;;;;;;;4.47;1.77;;;;;;;20.28;55.46;98050.94;5056816;28;20406;-71
2022/07/27 00:47:58;;;;;;;2.80;1.63;;;;;;;20.32;55.32;98046.59;5055872;28;20259;-71
2022/07/27 00:50:24;;;;;;;1.57;1.47;;;;;;;20.28;55.66;98045.53;5055829;28;20311;-71
2022/07/27 00:52:51;;;;;;;1.80;1.50;;;;;;;20.24;55.82;98045.31;5055601;28;20204;-71
2022/07/27 00:55:18;;;;;;;1.93;1.63;;;;;;;20.32;55.38;98046.59;5055798;28;20205;-71
2022/07/27 00:57:44;;;;;;;2.70;1.80;;;;;;;20.33;55.07;98040.94;5055724;28;20216;-71
2022/07/27 01:00:11;;;;;;;1.70;1.60;;;;;;;20.33;55.19;98032.81;5055432;28;20420;-71
2022/07/27 01:02:37;;;;;;;3.67;2.03;;;;;;;20.32;54.98;98035.81;5055409;28;20292;-71
2022/07/27 01:05:04;;;;;;;2.80;1.83;;;;;;;20.35;55.41;98027.16;5055315;28;20209;-70
2022/07/27 01:07:31;;;;;;;4.30;2.00;;;;;;;20.28;55.33;98034.75;5055229;28;20664;-71
2022/07/27 01:09:59;;;;;;;2.60;1.90;;;;;;;20.25;56.18;98036.13;5055166;28;20238;-71
2022/07/27 01:12:28;;;;;;;3.77;2.10;;;;;;;20.35;55.26;98030.63;5055476;28;20292;-71
2022/07/27 01:14:56;;;;;;;3.23;1.97;;;;;;;20.29;55.54;98025.56;5055130;28;20690;-71
2022/07/27 01:17:24;;;;;;;3.00;1.90;;;;;;;20.35;55.62;98022.53;5055092;28;20205;-71
2022/07/27 01:19:51;;;;;;;2.93;2.03;;;;;;;20.26;55.46;98020.72;5056015;28;20336;-71
2022/07/27 01:22:18;;;;;;;3.67;2.00;;;;;;;20.27;55.49;98014.25;5054997;28;20205;-71
2022/07/27 01:24:45;;;;;;;4.33;1.73;;;;;;;20.13;56.49;98000.59;5055259;28;20296;-71
2022/07/27 01:27:11;;;;;;;2.73;1.73;;;;;;;20.10;56.61;98003.84;5055206;28;20209;-70
2022/07/27 01:29:38;;;;;;;3.00;2.10;;;;;;;20.09;56.48;98012.22;5055038;28;20312;-70
2022/07/27 01:32:05;;;;;;;1.87;1.77;;;;;;;20.09;56.41;98012.22;5054824;28;20766;-71
2022/07/27 01:34:32;;;;;;;2.80;2.07;;;;;;;20.01;56.55;98004.66;5055057;28;20209;-71
2022/07/27 01:37:00;;;;;;;4.27;2.20;;;;;;;19.98;56.73;97987.16;5055032;28;20205;-71
2022/07/27 01:39:26;;;;;;;3.80;2.03;;;;;;;19.93;56.80;97989.09;5054746;28;20236;-71
2022/07/27 01:41:53;;;;;;;2.53;2.27;;;;;;;19.91;56.48;97991.25;5054918;28;20209;-71
2022/07/27 01:44:19;;;;;;;6.03;1.93;;;;;;;19.84;57.27;97983.47;5054892;28;20205;-71
2022/07/27 01:46:45;;;;;;;4.13;2.00;;;;;;;19.87;57.11;97990.19;5054521;28;20201;-71
2022/07/27 01:49:12;;;;;;;2.60;2.00;;;;;;;19.80;57.43;97995.09;5054608;28;20713;-71
2022/07/27 01:51:38;;;;;;;5.20;2.20;;;;;;;19.75;57.38;97989.75;5054756;28;20211;-71
2022/07/27 01:54:05;;;;;;;2.30;1.70;;;;;;;19.81;57.47;97984.00;5054706;28;20291;-71
2022/07/27 01:56:31;;;;;;;5.77;2.23;;;;;;;19.72;58.14;97982.19;5054603;28;20311;-71
2022/07/27 01:58:58;;;;;;;5.57;2.33;;;;;;;19.62;58.06;97983.06;5054267;28;20229;-71
2022/07/27 02:01:25;;;;;;;7.33;2.07;;;;;;;19.63;58.51;97989.25;5054553;28;20292;-71
2022/07/27 02:03:52;;;;;;;2.67;2.03;;;;;;;19.67;58.33;97979.53;5054155;28;20779;-71
2022/07/27 02:06:18;;;;;;;3.53;2.20;;;;;;;19.66;58.20;97978.72;5054379;28;20296;-71
2022/07/27 02:08:45;;;;;;;2.10;1.90;;;;;;;19.57;58.53;97980.38;5054285;28;20332;-71
2022/07/27 02:13:55;;;;;;;4.13;1.77;;;;;;;19.57;58.36;97987.69;5053920;28;20668;-71
2022/07/27 02:16:22;;;;;;;3.67;2.00;;;;;;;19.54;58.88;97972.88;5054138;28;20311;-71
2022/07/27 02:18:48;;;;;;;3.83;2.40;;;;;;;19.52;58.73;97969.63;5054512;28;20583;-71
2022/07/27 02:21:14;;;;;;;3.40;1.83;;;;;;;19.40;59.34;97969.13;5054076;28;20201;-71
2022/07/27 02:23:41;;;;;;;3.40;2.13;;;;;;;19.38;59.17;97972.13;5054069;28;20209;-71
2022/07/27 02:26:08;;;;;;;2.50;1.80;;;;;;;19.41;59.38;97974.25;5053946;28;20211;-71
2022/07/27 02:28:35;;;;;;;4.33;2.00;;;;;;;19.32;59.82;97970.53;5053852;28;20311;-71
2022/07/27 02:31:02;;;;;;;4.03;2.00;;;;;;;19.37;59.52;97981.28;5053968;28;20215;-71
2022/07/27 02:33:29;;;;;;;2.60;2.10;;;;;;;19.19;60.30;97973.00;5053965;28;20291;-71
2022/07/27 02:35:55;;;;;;;3.97;2.10;;;;;;;19.24;60.22;97979.22;5053921;28;20231;-71
2022/07/27 02:38:21;;;;;;;3.20;2.13;;;;;;;19.16;60.35;97985.13;5053421;28;20212;-71
2022/07/27 02:40:48;;;;;;;3.53;2.03;;;;;;;19.23;60.19;97982.97;5053536;28;20255;-71
2022/07/27 02:43:14;;;;;;;3.60;2.13;;;;;;;19.15;60.53;97982.72;5053771;28;20201;-71
2022/07/27 02:45:41;;;;;;;3.30;2.10;;;;;;;19.10;60.58;97980.03;5053713;28;20609;-71
2022/07/27 02:48:07;;;;;;;2.20;2.00;;;;;;;19.04;61.20;97984.63;5053319;28;20201;-71
2022/07/27 02:50:34;;;;;;;4.23;2.03;;;;;;;19.10;60.99;97985.44;5053621;28;20292;-71
2022/07/27 02:53:00;;;;;;;2.03;1.93;;;;;;;19.03;61.56;97984.91;5054462;28;20551;-71
2022/07/27 02:55:26;;;;;;;2.47;2.07;;;;;;;19.03;61.72;98001.88;5053301;28;20300;-71
2022/07/27 02:57:53;;;;;;;2.97;2.10;;;;;;;19.05;61.62;97991.63;5053573;28;20240;-71
2022/07/27 03:00:19;;;;;;;3.13;2.20;;;;;;;19.12;61.07;97991.34;5053108;28;20714;-71
2022/07/27 03:02:49;;;;;;;4.23;2.43;;;;;;;18.99;61.65;97990.03;5053388;28;20300;-71
2022/07/27 03:05:17;;;;;;;4.40;2.10;;;;;;;18.98;61.87;97985.72;5053216;28;20201;-71
2022/07/27 03:07:43;;;;;;;4.60;2.30;;;;;;;18.96;61.64;97985.19;5053791;28;20299;-71
2022/07/27 03:10:10;;;;;;;2.20;2.00;;;;;;;18.98;61.87;97983.03;5053562;28;20221;-71
2022/07/27 03:12:36;;;;;;;3.83;2.30;;;;;;;19.00;62.00;97980.88;5053446;28;20300;-71
2022/07/27 03:15:03;;;;;;;2.70;2.00;;;;;;;18.90;62.67;97986.28;5053124;28;20213;-71
2022/07/27 03:17:31;;;;;;;3.43;2.20;;;;;;;18.83;62.69;97988.44;5052996;28;20201;-71
2022/07/27 03:19:58;;;;;;;2.80;2.30;;;;;;;18.83;62.81;97984.97;5053712;28;20344;-71
2022/07/27 03:22:24;;;;;;;2.30;2.10;;;;;;;18.75;63.29;97985.50;5052941;28;20739;-71
2022/07/27 03:24:50;;;;;;;6.53;2.33;;;;;;;18.65;63.40;97980.16;5053324;28;20241;-71
2022/07/27 03:27:17;;;;;;;2.83;2.23;;;;;;;18.67;63.50;97980.66;5056970;28;20701;-71
2022/07/27 03:29:43;;;;;;;4.10;2.03;;;;;;;18.69;63.62;97979.31;5057286;28;20308;-71
2022/07/27 03:32:10;;;;;;;2.43;2.27;;;;;;;18.67;63.96;97984.19;5057683;28;20210;-71
2022/07/27 03:34:37;;;;;;;2.20;2.00;;;;;;;18.77;63.41;97997.63;5056706;28;20209;-71
2022/07/27 03:37:03;;;;;;;4.27;2.27;;;;;;;18.85;63.17;97996.25;5057010;28;20211;-71
2022/07/27 03:39:30;;;;;;;3.83;2.30;;;;;;;18.69;63.80;97994.69;5056820;28;20229;-71
2022/07/27 03:41:56;;;;;;;4.13;2.60;;;;;;;18.71;63.75;97987.94;5056773;28;20212;-71
2022/07/27 03:44:23;;;;;;;3.97;2.30;;;;;;;18.68;63.65;97991.19;5056754;28;20236;-71
2022/07/27 03:46:49;;;;;;;3.53;2.47;;;;;;;18.69;63.62;97984.69;5056405;28;20670;-71
2022/07/27 03:49:15;;;;;;;2.77;2.40;;;;;;;18.65;64.00;97988.22;5056381;28;20312;-71
2022/07/27 03:51:42;;;;;;;4.50;2.63;;;;;;;18.66;64.21;97985.28;5056658;28;20239;-70
2022/07/27 03:54:08;;;;;;;2.47;2.20;;;;;;;18.63;64.45;97987.69;5056679;28;20212;-71
2022/07/27 03:56:35;;;;;;;3.30;2.20;;;;;;;18.60;64.45;97994.41;5056761;28;20292;-71
2022/07/27 03:59:02;;;;;;;2.97;2.40;;;;;;;18.61;64.30;97992.53;5056474;28;20241;-71
2022/07/27 04:01:28;;;;;;;4.33;2.40;;;;;;;18.55;64.63;97990.94;5056474;28;20196;-71
2022/07/27 04:03:54;;;;;;;4.30;2.33;;;;;;;18.42;65.41;98000.34;5055960;28;20209;-71
2022/07/27 04:06:21;;;;;;;6.23;2.90;;;;;;;18.44;65.24;98000.91;5056446;28;20208;-71
2022/07/27 04:08:47;;;;;;;3.43;2.80;;;;;;;18.51;65.43;98003.31;5056906;28;20225;-71
2022/07/27 04:11:14;;;;;;;3.87;2.50;;;;;;;18.38;65.61;97998.47;5056715;28;20215;-70
2022/07/27 04:13:42;;;;;;;5.20;2.70;;;;;;;18.45;65.56;98007.91;5056230;28;20643;-71
2022/07/27 04:16:08;;;;;;;4.97;2.90;;;;;;;18.38;65.87;97999.31;5055853;28;20300;-71
2022/07/27 04:18:35;;;;;;;5.27;2.80;;;;;;;18.32;66.41;98004.91;5055655;28;20708;-71
2022/07/27 04:21:05;;;;;;;6.03;3.13;;;;;;;18.21;67.02;98009.47;5055669;28;20710;-71
2022/07/27 04:23:31;;;;;;;2.93;2.60;;;;;;;18.16;67.28;98016.75;5055886;28;20205;-71
2022/07/27 04:25:58;;;;;;;5.93;2.43;;;;;;;18.33;67.18;98018.13;5056204;28;20205;-71
2022/07/27 04:28:25;;;;;;;4.33;2.77;;;;;;;18.33;66.81;98018.13;5055370;28;20680;-71
2022/07/27 04:30:51;;;;;;;3.27;2.83;;;;;;;18.23;68.06;98012.69;5056006;28;20208;-71
2022/07/27 04:33:17;;;;;;;3.53;2.93;;;;;;;18.29;67.09;98014.34;5055773;28;20296;-71
2022/07/27 04:35:44;;;;;;;5.43;2.60;;;;;;;18.35;66.99;98010.59;5055568;28;20690;-71
2022/07/27 04:38:10;;;;;;;4.97;2.70;;;;;;;18.33;67.40;98017.31;5055154;28;20300;-71
2022/07/27 04:40:37;;;;;;;2.83;2.60;;;;;;;18.42;67.57;98026.47;5055662;28;20587;-71
2022/07/27 04:43:04;;;;;;;3.73;2.33;;;;;;;18.47;67.70;98021.91;5056028;28;20215;-71
2022/07/27 04:45:31;;;;;;;4.33;2.73;;;;;;;18.49;67.30;98025.13;5055674;28;20205;-71
2022/07/27 04:47:58;;;;;;;3.07;2.53;;;;;;;18.41;67.22;98032.94;5055484;28;20288;-71
2022/07/27 04:50:24;;;;;;;3.67;2.83;;;;;;;18.34;67.37;98027.00;5054972;28;20312;-71
2022/07/27 04:52:51;;;;;;;3.50;2.67;;;;;;;18.49;66.99;98029.69;5055491;28;20240;-71
2022/07/27 04:55:17;;;;;;;4.63;2.77;;;;;;;18.59;66.95;98027.03;5055342;28;20296;-71
2022/07/27 04:57:43;;;;;;;5.17;2.50;;;;;;;18.60;67.12;98026.72;5055401;28;20217;-70
2022/07/27 05:00:11;;;;;;;5.67;3.13;;;;;;;18.62;66.70;98024.59;5054687;28;20237;-71
2022/07/27 05:02:40;;;;;;;4.07;2.80;;;;;;;18.63;67.36;98036.97;5055029;28;20228;-71
2022/07/27 05:05:08;;;;;;;4.97;3.50;;;;;;;18.65;66.69;98042.09;5055867;28;20294;-71
2022/07/27 05:07:35;;;;;;;3.33;2.57;;;;;;;18.55;66.86;98048.28;5054491;28;20751;-71
2022/07/27 05:10:01;;;;;;;3.73;2.83;;;;;;;18.58;66.93;98042.34;5054140;28;20703;-71
2022/07/27 05:12:28;;;;;;;5.60;3.47;;;;;;;18.67;66.51;98037.22;5054435;28;20205;-71
2022/07/27 05:14:54;;;;;;;4.80;2.97;;;;;;;18.64;67.26;98035.88;5054494;28;20264;-71
2022/07/27 05:17:21;;;;;;;4.80;2.80;;;;;;;18.88;66.48;98036.13;5054724;28;20211;-71
2022/07/27 05:19:47;;;;;;;3.57;2.97;;;;;;;18.86;66.54;98044.47;5054361;28;20327;-71
2022/07/27 05:22:13;;;;;;;3.17;2.77;;;;;;;18.90;66.15;98050.94;5054328;28;20213;-71
2022/07/27 05:24:41;;;;;;;2.77;2.53;;;;;;;18.98;65.92;98054.97;5054195;28;20288;-71
2022/07/27 05:27:07;;;;;;;5.27;3.30;;;;;;;18.95;66.42;98059.00;5054870;28;20209;-71
2022/07/27 05:29:34;;;;;;;4.47;2.80;;;;;;;18.96;65.44;98071.41;5054493;28;20791;-71
2022/07/27 05:32:00;;;;;;;4.13;2.90;;;;;;;18.88;66.15;98063.88;5054187;28;20292;-71
2022/07/27 05:34:26;;;;;;;4.57;3.10;;;;;;;18.84;66.05;98060.13;5053701;28;20205;-70
2022/07/27 05:36:53;;;;;;;4.77;2.80;;;;;;;19.02;66.08;98064.13;5053976;28;20211;-71
2022/07/27 05:39:19;;;;;;;5.53;3.17;;;;;;;19.04;66.00;98062.75;5053862;28;20229;-71
2022/07/27 05:41:46;;;;;;;4.23;3.23;;;;;;;19.24;64.30;98065.47;5054047;28;20299;-71
2022/07/27 05:44:12;;;;;;;4.57;3.47;;;;;;;18.52;67.19;98064.16;5053404;28;20546;-71
2022/07/27 05:46:38;;;;;;;5.77;3.30;;;;;;;18.76;67.03;98067.91;5054284;28;20201;-70
2022/07/27 05:49:05;;;;;;;6.57;2.90;;;;;;;18.97;66.15;98077.59;5053265;28;20221;-71
2022/07/27 05:51:32;;;;;;;5.97;2.90;;;;;;;18.92;66.34;98072.22;5054442;28;20209;-71
2022/07/27 05:53:59;;;;;;;4.73;3.17;;;;;;;19.13;65.69;98077.31;5054009;28;20552;-71
2022/07/27 05:56:26;;;;;;;4.43;2.90;;;;;;;19.32;64.96;98080.28;5054041;28;20212;-71
2022/07/27 05:58:53;;;;;;;5.43;3.00;;;;;;;19.30;65.66;98077.84;5054025;28;20271;-70
2022/07/27 06:01:19;;;;;;;3.23;2.93;;;;;;;19.21;65.24;98092.09;5053756;28;20218;-71
2022/07/27 06:03:46;;;;;;;3.97;3.40;;;;;;;19.08;65.39;98092.66;5053362;28;20296;-71
2022/07/27 06:08:52;;;;;;;3.97;3.23;;;;;;;19.14;65.96;98092.38;5019966;28;20311;-71
2022/07/27 06:11:19;;;;;;;5.97;3.77;;;;;;;19.20;64.94;98088.63;5053677;28;20270;-71
2022/07/27 06:13:46;;;;;;;3.70;3.33;;;;;;;19.01;65.75;98094.84;5053681;28;20312;-70
2022/07/27 06:16:12;;;;;;;4.93;2.80;;;;;;;19.33;65.15;98085.38;5053240;28;20209;-70
2022/07/27 06:18:39;;;;;;;3.10;2.90;;;;;;;19.38;64.99;98089.94;5057693;28;20229;-71
2022/07/27 06:21:05;;;;;;;4.33;3.20;;;;;;;19.28;65.42;98087.28;5056860;28;20235;-71
2022/07/27 06:23:32;;;;;;;4.17;3.10;;;;;;;19.31;65.67;98086.72;5057667;28;20211;-70
2022/07/27 06:25:58;;;;;;;3.77;3.10;;;;;;;19.22;65.09;98096.41;5056557;28;20290;-70
2022/07/27 06:28:25;;;;;;;4.50;3.23;;;;;;;19.17;65.15;98091.84;5057131;28;20205;-70
2022/07/27 06:30:52;;;;;;;5.90;2.90;;;;;;;19.22;65.15;98091.88;5056660;28;20743;-70
2022/07/27 06:33:26;;;;;;;3.57;3.27;;;;;;;19.36;65.27;98090.22;5056132;28;20623;-71
2022/07/27 06:35:56;;;;;;;3.97;3.23;;;;;;;19.46;64.13;98092.88;5055952;28;20194;-71
2022/07/27 06:38:24;;;;;;;5.53;3.23;;;;;;;19.62;64.00;98090.16;5056103;28;20668;-71
2022/07/27 06:40:52;;;;;;;3.47;3.07;;;;;;;19.64;64.12;98099.56;5055618;28;20225;-71
2022/07/27 06:43:26;;;;;;;5.00;3.33;;;;;;;19.76;63.66;98104.66;5056427;28;20205;-71
2022/07/27 06:45:54;;;;;;;3.90;2.70;;;;;;;19.81;63.75;98112.72;5056200;28;20228;-70
2022/07/27 06:48:20;;;;;;;5.40;3.60;;;;;;;19.85;62.69;98105.69;5056595;28;20205;-71
2022/07/27 06:50:48;;;;;;;4.10;3.70;;;;;;;19.67;63.67;98106.31;5055994;28;20695;-70
2022/07/27 06:53:14;;;;;;;4.23;3.00;;;;;;;19.58;64.18;98101.47;5055760;28;20205;-70
2022/07/27 06:55:41;;;;;;;4.43;2.93;;;;;;;19.48;64.57;98106.91;5056544;28;20281;-71
2022/07/27 06:58:07;;;;;;;3.37;3.07;;;;;;;19.86;63.92;98104.59;5056752;28;20216;-71
2022/07/27 07:00:34;;;;;;;3.53;2.97;;;;;;;19.96;62.94;98110.75;5055856;28;20629;-71
2022/07/27 07:03:02;;;;;;;4.90;3.70;;;;;;;19.69;63.88;98103.03;5056364;28;20293;-71
2022/07/27 07:05:31;;;;;;;3.20;3.00;;;;;;;19.67;64.23;98109.78;5056382;28;20240;-70
2022/07/27 07:07:58;;;;;;;3.03;2.70;;;;;;;19.76;63.93;98100.03;5056253;28;20241;-70
2022/07/27 07:10:25;;;;;;;3.33;2.83;;;;;;;19.83;63.79;98102.44;5055992;28;20232;-70
2022/07/27 07:12:55;;;;;;;5.40;3.50;;;;;;;19.94;62.74;98098.63;5055167;28;20706;-70
2022/07/27 07:15:23;;;;;;;4.13;3.00;;;;;;;19.39;64.12;98097.75;5055352;28;20201;-70
2022/07/27 07:17:50;;;;;;;3.30;3.10;;;;;;;19.16;65.53;98102.91;5055630;28;20212;-70
2022/07/27 07:20:16;;;;;;;4.87;4.43;;;;;;;19.72;64.35;98106.28;5056037;28;20232;-70
2022/07/27 07:22:43;;;;;;;3.10;2.87;;;;;;;19.74;63.92;98099.53;5055084;28;20212;-71
2022/07/27 07:25:09;;;;;;;10.60;3.50;;;;;;;19.80;63.32;98098.41;5056016;28;20215;-71
2022/07/27 07:27:36;;;;;;;6.60;3.00;;;;;;;20.10;62.85;98102.88;5056093;28;20240;-71
2022/07/27 07:30:03;;;;;;;3.43;3.13;;;;;;;20.34;61.64;98098.44;5055212;28;20228;-70
2022/07/27 07:32:30;;;;;;;3.63;3.10;;;;;;;20.33;62.29;98096.81;5054512;28;20205;-70
2022/07/27 07:34:56;;;;;;;3.67;3.10;;;;;;;20.21;61.96;98094.44;5055087;28;20248;-71
2022/07/27 07:37:22;;;;;;;4.93;3.20;;;;;;;20.43;61.26;98091.38;5056435;28;20631;-71
2022/07/27 07:39:49;;;;;;;4.37;3.20;;;;;;;20.34;61.49;98087.66;5056355;28;20666;-71
2022/07/27 07:42:15;;;;;;;3.80;3.20;;;;;;;20.08;62.92;98097.75;5055535;28;20296;-70
2022/07/27 07:44:42;;;;;;;7.07;3.57;;;;;;;20.29;62.07;98096.56;5055260;28;20227;-71
2022/07/27 07:47:09;;;;;;;3.13;2.93;;;;;;;20.70;60.64;98089.00;5055285;28;20308;-71
2022/07/27 07:49:36;;;;;;;5.27;2.80;;;;;;;20.28;62.14;98084.16;5055329;28;20225;-71
2022/07/27 07:52:02;;;;;;;3.60;3.30;;;;;;;20.06;62.14;98088.28;5055070;28;20197;-71
2022/07/27 07:54:29;;;;;;;3.43;2.93;;;;;;;20.55;61.66;98083.69;5055918;28;20292;-70
2022/07/27 07:56:55;;;;;;;2.83;2.63;;;;;;;20.79;60.48;98085.38;5055347;28;20627;-70
2022/07/27 07:59:21;;;;;;;4.53;2.90;;;;;;;20.57;61.59;98093.13;5055342;28;20229;-70
2022/07/27 08:01:48;;;;;;;6.10;3.20;;;;;;;20.78;60.15;98093.78;5055293;28;20326;-70
2022/07/27 08:04:14;;;;;;;5.00;3.17;;;;;;;21.22;59.28;98084.47;5055570;28;20211;-70
2022/07/27 08:06:41;;;;;;;5.53;3.07;;;;;;;21.02;59.57;98094.69;5055193;28;20676;-70
2022/07/27 08:09:07;;;;;;;6.53;3.07;;;;;;;20.94;59.69;98087.97;5055851;28;20251;-71
2022/07/27 08:11:34;;;;;;;3.33;3.03;;;;;;;20.22;61.58;98100.66;5056060;28;20202;-71
2022/07/27 08:14:02;;;;;;;3.87;2.63;;;;;;;20.55;62.16;98097.19;5058691;28;20296;-70
2022/07/27 08:16:28;;;;;;;3.60;2.90;;;;;;;20.69;60.97;98098.16;5056216;28;20669;-71
2022/07/27 08:18:54;;;;;;;4.10;3.70;;;;;;;21.08;60.30;98104.34;5057875;28;20236;-71
2022/07/27 08:21:21;;;;;;;23.47;21.10;;;;;;;20.83;60.05;98105.34;5058759;28;20312;-71
2022/07/27 08:23:47;;;;;;;4.23;3.00;;;;;;;21.21;59.32;98112.59;5058312;28;20228;-71
2022/07/27 08:26:14;;;;;;;5.37;4.00;;;;;;;21.25;58.79;98110.94;5041752;28;20289;-71
2022/07/27 08:28:40;;;;;;;7.00;3.60;;;;;;;21.14;58.67;98109.44;5038855;28;20228;-71
2022/07/27 08:31:06;;;;;;;6.87;5.57;;;;;;;20.90;59.04;98103.19;5038770;28;20653;-71
2022/07/27 08:33:33;;;;;;;5.07;3.00;;;;;;;21.33;59.45;98102.19;5038359;28;20212;-71
2022/07/27 08:35:59;;;;;;;4.10;2.70;;;;;;;21.46;57.56;98108.81;5037284;28;20296;-70
2022/07/27 08:38:26;;;;;;;3.73;3.00;;;;;;;22.01;56.75;98105.47;5038151;28;20270;-70
2022/07/27 08:40:55;;;;;;;4.93;3.00;;;;;;;21.64;57.47;98105.38;5039042;28;20218;-71
2022/07/27 08:43:24;;;;;;;4.07;2.70;;;;;;;21.81;56.99;98098.44;5037957;28;20289;-71
2022/07/27 08:45:58;;;;;;;3.77;3.47;;;;;;;21.39;57.69;98092.94;5038186;28;20210;-71
2022/07/27 08:48:26;;;;;;;5.20;2.90;;;;;;;21.50;57.96;98102.56;5037953;28;20222;-71
2022/07/27 08:50:54;;;;;;;4.47;3.07;;;;;;;21.89;57.19;98113.25;5037590;28;20724;-71
2022/07/27 08:53:21;;;;;;;4.90;3.20;;;;;;;21.46;56.97;98106.13;5037297;28;20205;-71
2022/07/27 08:55:48;;;;;;;3.60;3.30;;;;;;;22.12;55.99;98104.25;5037712;28;20301;-70
2022/07/27 08:58:15;;;;;;;3.23;2.77;;;;;;;22.07;56.43;98107.03;5038278;28;20210;-70
2022/07/27 09:00:48;;;;;;;2.97;2.77;;;;;;;22.18;55.33;98105.81;5037238;28;20727;-70
2022/07/27 09:03:16;;;;;;;3.00;2.77;;;;;;;22.67;54.82;98107.00;5038094;28;20198;-70
2022/07/27 09:05:49;;;;;;;7.70;3.07;;;;;;;22.50;54.17;98112.13;5037689;28;20669;-71
2022/07/27 09:08:22;;;;;;;3.20;2.70;;;;;;;22.50;54.56;98105.91;5038571;28;20560;-71
2022/07/27 09:10:49;;;;;;;3.30;2.70;;;;;;;22.40;55.62;98097.91;5038050;28;20260;-71
2022/07/27 09:13:25;;;;;;;3.80;2.90;;;;;;;22.03;56.33;98104.09;5038279;28;20274;-71
2022/07/27 09:15:55;;;;;;;6.03;3.47;;;;;;;22.24;56.01;98093.81;5037873;28;20260;-71
2022/07/27 09:18:26;;;;;;;4.27;3.17;;;;;;;22.60;54.75;98094.91;5038452;28;20294;-70
2022/07/27 09:21:19;;;;;;;2.97;2.70;;;;;;;22.50;55.06;98095.88;5038213;28;20413;-71
2022/07/27 09:23:52;;;;;;;3.93;2.97;;;;;;;22.07;55.51;98097.00;5037648;28;20190;-71
2022/07/27 09:26:24;;;;;;;4.13;2.93;;;;;;;22.48;55.42;98091.88;5037193;28;20664;-71
2022/07/27 09:28:59;;;;;;;5.13;3.70;;;;;;;22.69;55.22;98093.13;5037723;28;20226;-71
2022/07/27 09:31:25;;;;;;;6.63;3.97;;;;;;;22.36;54.83;98099.59;5036970;28;20181;-72
2022/07/27 09:33:58;;;;;;;3.43;3.13;;;;;;;22.50;54.45;98101.31;5036321;28;20668;-72
2022/07/27 09:36:26;;;;;;;3.57;3.27;;;;;;;22.23;55.72;98103.84;5035989;28;20305;-69
2022/07/27 09:39:01;;;;;;;4.07;3.63;;;;;;;22.43;55.84;98105.44;5036314;28;20226;-71
2022/07/27 09:41:39;;;;;;;4.60;2.83;;;;;;;22.76;53.98;98107.94;5036498;28;20263;-72
2022/07/27 09:44:06;;;;;;;4.30;3.10;;;;;;;22.14;55.07;98108.28;5036149;28;20190;-69
2022/07/27 09:46:42;;;;;;;3.50;3.10;;;;;;;22.03;55.52;98111.44;5035524;28;20265;-69
2022/07/27 09:49:30;;;;;;;3.87;2.90;;;;;;;21.84;56.28;98114.09;5036556;28;20316;-69
2022/07/27 09:51:58;;;;;;;4.90;3.10;;;;;;;21.99;56.32;98105.81;5036020;28;20186;-69
2022/07/27 09:54:24;;;;;;;3.30;3.00;;;;;;;22.18;55.77;98112.03;5036136;28;20212;-69
2022/07/27 09:57:00;;;;;;;3.10;2.90;;;;;;;22.03;54.93;98103.31;5037110;28;20206;-70
2022/07/27 09:59:29;;;;;;;3.30;3.00;;;;;;;22.50;53.98;98106.72;5034982;28;20705;-70
2022/07/27 10:01:56;;;;;;;3.47;2.40;;;;;;;22.84;54.08;98101.03;5035870;28;20298;-70
2022/07/27 10:04:24;;;;;;;6.37;3.63;;;;;;;22.89;52.23;98101.75;5036496;28;20293;-69
2022/07/27 10:06:50;;;;;;;4.07;3.23;;;;;;;23.00;52.83;98105.09;5036384;28;20308;-69
2022/07/27 10:09:18;;;;;;;3.93;3.03;;;;;;;23.22;52.24;98108.81;5036391;28;20222;-69
2022/07/27 10:11:48;;;;;;;5.70;3.00;;;;;;;22.88;53.31;98107.47;5036580;28;20206;-68
2022/07/27 10:14:14;;;;;;;3.40;3.00;;;;;;;22.35;53.79;98106.94;5036885;28;20283;-69
2022/07/27 10:16:41;;;;;;;6.73;3.20;;;;;;;22.70;53.25;98105.59;5036437;28;20264;-69
2022/07/27 10:19:21;;;;;;;4.80;3.10;;;;;;;23.10;52.09;98096.78;5037078;28;20618;-70
2022/07/27 10:21:48;;;;;;;3.37;2.80;;;;;;;23.61;50.14;98100.22;5036656;28;20277;-69
2022/07/27 10:24:33;;;;;;;3.93;3.10;;;;;;;23.71;50.17;98092.69;5037564;28;20300;-70
2022/07/27 10:27:18;;;;;;;4.03;3.13;;;;;;;23.22;51.43;98100.66;5037230;28;20264;-70
2022/07/27 10:29:47;;;;;;;5.18;3.00;;;;;;;23.37;50.92;98094.13;5036708;28;20230;-70
2022/07/27 10:32:24;;;;;;;5.60;3.30;;;;;;;23.78;50.02;98098.50;5037283;28;20656;-70
2022/07/27 10:34:50;;;;;;;5.97;2.50;;;;;;;23.93;49.83;98102.84;5039130;28;20257;-69
2022/07/27 10:37:25;;;;;;;3.75;3.38;;;;;;;23.49;50.15;98099.91;5037501;28;20198;-70
2022/07/27 10:40:32;;;;;;;3.00;2.70;;;;;;;23.01;51.60;98101.31;5037852;28;20235;-70
2022/07/27 10:42:41;;;;;;;3.45;2.50;;;;;;;24.12;48.69;98092.66;5035717;28;20295;-70
2022/07/27 10:45:10;;;;;;;3.17;2.40;;;;;;;24.05;48.25;98092.25;5035687;28;20691;-70
2022/07/27 10:47:49;;;;;;;4.32;2.47;;;;;;;23.75;47.97;98092.88;5035542;28;20296;-71
2022/07/27 10:50:15;;;;;;;2.65;2.33;;;;;;;24.50;47.98;98089.31;5035782;28;20230;-71
2022/07/27 10:52:41;;;;;;;6.93;6.32;;;;;;;24.55;47.21;98088.38;5035721;28;20296;-72
2022/07/27 10:55:28;;;;;;;2.55;2.08;;;;;;;24.29;48.64;98090.09;5034421;28;20587;-70
2022/07/27 10:58:14;;;;;;;4.78;2.47;;;;;;;24.19;47.15;98106.63;5033092;28;20210;-70
2022/07/27 11:00:49;;;;;;;5.10;2.20;;;;;;;24.11;47.13;98089.13;5034847;28;20218;-71
2022/07/27 11:03:36;;;;;;;2.85;2.50;;;;;;;24.38;46.05;98091.00;5034997;28;20288;-70
2022/07/27 11:06:06;;;;;;;5.43;2.40;;;;;;;24.28;46.78;98081.13;5035531;28;20186;-71
2022/07/27 11:08:35;;;;;;;2.58;2.30;;;;;;;24.35;45.97;98089.69;5035483;28;20281;-71
2022/07/27 11:11:02;;;;;;;4.18;2.30;;;;;;;23.91;47.14;98091.47;5035726;28;20289;-71
2022/07/27 11:13:30;;;;;;;3.97;2.95;;;;;;;23.69;48.01;98084.00;5035907;28;20292;-71
2022/07/27 11:16:05;;;;;;;2.55;2.30;;;;;;;24.04;47.35;98080.59;5034217;28;20309;-70
2022/07/27 11:18:36;;;;;;;4.40;2.28;;;;;;;24.28;45.70;98073.00;5036069;28;20264;-71
2022/07/27 11:21:18;;;;;;;4.40;2.40;;;;;;;24.36;46.56;98083.13;5034968;28;20213;-70
2022/07/27 11:23:46;;;;;;;2.22;2.03;;;;;;;24.55;46.40;98066.63;5034892;28;20294;-71
2022/07/27 11:26:13;;;;;;;3.03;2.03;;;;;;;24.81;44.60;98071.19;5034677;28;20683;-70
2022/07/27 11:28:40;;;;;;;3.42;2.10;;;;;;;24.90;44.28;98063.09;5035830;28;20561;-71
2022/07/27 11:31:08;;;;;;;2.45;2.13;;;;;;;25.03;42.39;98065.75;5035994;28;20198;-71
2022/07/27 11:33:36;;;;;;;2.20;2.00;;;;;;;24.82;40.73;98058.38;5036434;28;20214;-71
2022/07/27 11:36:06;;;;;;;2.88;1.88;;;;;;;24.47;41.52;98060.03;5033911;28;20293;-71
2022/07/27 11:38:52;;;;;;;1.85;1.75;;;;;;;24.09;42.16;98066.09;5035325;28;20685;-71
2022/07/27 11:41:24;;;;;;;2.90;2.03;;;;;;;24.52;42.13;98056.41;5035273;28;20210;-71
2022/07/27 11:43:51;;;;;;;2.42;1.70;;;;;;;24.83;40.19;98057.31;5034713;28;20293;-71